Time;durP1;ratioP1;P1;durP2;ratioP2;P2;SDS_P1;SDS_P2;PMS_P1;PMS_P2;Temp;Humidity;BMP_temperature;BMP_pressure;BME280_temperature;BME280_humidity;BME280_pressure;Samples;Min_cycle;Max_cycle;Signal;HPM_P1;HPM_P2
2023/05/09 00:02:08;;;;;;;37.42;28.25;;;13.80;60.00;;;;;;7365520;19;20424;-73
2023/05/09 00:04:38;;;;;;;43.22;31.13;;;13.80;60.10;;;;;;7365407;19;20475;-73
2023/05/09 00:07:11;;;;;;;43.78;31.15;;;13.80;59.80;;;;;;7366289;19;20019;-73
2023/05/09 00:09:41;;;;;;;45.70;32.25;;;13.80;59.70;;;;;;7362308;19;20446;-73
2023/05/09 00:12:11;;;;;;;42.38;32.05;;;13.80;59.10;;;;;;7387724;19;20010;-73
2023/05/09 00:14:44;;;;;;;39.13;30.15;;;13.70;59.10;;;;;;7365042;19;20025;-73
2023/05/09 00:17:14;;;;;;;42.55;32.13;;;13.70;59.10;;;;;;7373472;19;20007;-73
2023/05/09 00:19:46;;;;;;;46.38;32.58;;;13.60;59.30;;;;;;7367085;19;20014;-73
2023/05/09 00:22:20;;;;;;;43.50;30.48;;;13.60;59.60;;;;;;7368620;19;20347;-73
2023/05/09 00:24:50;;;;;;;41.85;29.95;;;13.50;59.20;;;;;;7372000;19;20026;-72
2023/05/09 00:27:20;;;;;;;43.60;28.85;;;13.50;59.90;;;;;;7372337;19;20014;-72
2023/05/09 00:29:50;;;;;;;39.50;29.83;;;13.50;59.90;;;;;;7389804;19;20014;-72
2023/05/09 00:32:20;;;;;;;38.10;29.23;;;13.50;60.20;;;;;;7373351;19;20012;-73
2023/05/09 00:34:50;;;;;;;39.13;28.70;;;13.50;60.10;;;;;;7372663;19;20018;-72
2023/05/09 00:37:22;;;;;;;34.67;27.00;;;13.50;60.00;;;;;;7372619;19;20017;-73
2023/05/09 00:39:52;;;;;;;38.17;28.45;;;13.50;59.40;;;;;;7367782;19;20038;-72
2023/05/09 00:42:22;;;;;;;38.33;27.27;;;13.50;59.00;;;;;;7372788;19;20030;-72
2023/05/09 00:44:52;;;;;;;37.25;27.77;;;13.50;58.60;;;;;;7394904;19;20014;-72
2023/05/09 00:47:24;;;;;;;33.47;25.33;;;13.50;58.30;;;;;;7372708;19;20006;-72
2023/05/09 00:49:55;;;;;;;40.35;26.90;;;13.50;58.00;;;;;;7366992;19;20344;-72
2023/05/09 00:52:29;;;;;;;34.58;25.90;;;13.50;58.10;;;;;;7372246;19;20010;-72
2023/05/09 00:55:00;;;;;;;34.78;25.85;;;13.50;57.90;;;;;;7371403;19;20011;-72
2023/05/09 00:57:30;;;;;;;34.72;25.75;;;13.50;57.60;;;;;;7372283;19;20057;-72
2023/05/09 00:59:59;;;;;;;36.85;26.55;;;13.50;57.40;;;;;;7387042;19;20423;-73
2023/05/09 01:02:30;;;;;;;35.22;24.65;;;13.50;56.70;;;;;;7372296;19;20013;-72
2023/05/09 01:05:00;;;;;;;34.97;25.48;;;13.50;56.60;;;;;;7370970;19;20558;-73
2023/05/09 01:07:39;;;;;;;36.20;26.23;;;13.70;56.90;;;;;;7371478;19;20050;-73
2023/05/09 01:10:16;;;;;;;32.13;25.00;;;13.60;56.70;;;;;;7368668;19;20018;-72
2023/05/09 01:12:51;;;;;;;34.05;25.30;;;13.60;56.70;;;;;;7371469;19;20035;-72
2023/05/09 01:15:28;;;;;;;36.80;25.63;;;13.60;56.40;;;;;;7371279;19;20052;-71
2023/05/09 01:18:04;;;;;;;34.53;25.08;;;13.60;56.50;;;;;;7392650;19;20018;-72
2023/05/09 01:20:39;;;;;;;33.08;24.83;;;13.60;56.40;;;;;;7367979;19;20486;-72
2023/05/09 01:23:43;;;;;;;32.45;24.13;;;13.50;55.90;;;;;;7370972;19;20471;-73
2023/05/09 01:26:22;;;;;;;31.90;25.55;;;13.50;55.30;;;;;;7370043;19;20050;-73
2023/05/09 01:29:15;;;;;;;37.25;25.33;;;13.50;55.10;;;;;;7369108;19;20010;-73
2023/05/09 01:31:46;;;;;;;39.05;26.52;;;13.50;55.20;;;;;;7369558;19;20362;-73
2023/05/09 01:34:19;;;;;;;32.38;25.27;;;13.40;55.00;;;;;;7371144;19;20011;-73
2023/05/09 01:36:52;;;;;;;31.27;24.85;;;13.40;55.20;;;;;;7370562;19;20384;-72
2023/05/09 01:39:24;;;;;;;35.40;24.58;;;13.50;55.70;;;;;;7367500;19;20504;-72
2023/05/09 01:41:55;;;;;;;37.15;26.10;;;13.50;56.00;;;;;;7391397;19;20019;-71
2023/05/09 01:44:29;;;;;;;35.50;27.23;;;13.50;56.60;;;;;;7370088;19;20003;-71
2023/05/09 01:47:00;;;;;;;;;;;13.40;56.50;;;;;;7371092;19;20015;-71
2023/05/09 01:49:32;;;;;;;38.22;27.40;;;13.40;56.70;;;;;;7367853;19;19942;-72
2023/05/09 01:52:05;;;;;;;35.47;25.63;;;13.40;56.60;;;;;;7368621;19;20016;-72
2023/05/09 01:54:36;;;;;;;34.63;27.27;;;13.50;57.20;;;;;;7370495;19;20011;-72
2023/05/09 01:57:07;;;;;;;35.65;26.30;;;13.50;56.70;;;;;;7370662;19;20345;-72
2023/05/09 01:59:42;;;;;;;37.75;26.30;;;13.50;56.70;;;;;;7389688;19;20011;-73
2023/05/09 02:02:13;;;;;;;33.97;24.80;;;13.40;56.50;;;;;;7369270;19;20015;-73
2023/05/09 02:04:44;;;;;;;34.20;25.05;;;13.40;56.50;;;;;;7370161;19;20006;-73
2023/05/09 02:07:14;;;;;;;31.90;25.60;;;13.40;56.60;;;;;;7370546;19;20045;-72
2023/05/09 02:09:44;;;;;;;34.13;26.70;;;13.50;57.50;;;;;;7368027;19;20012;-73
2023/05/09 02:12:14;;;;;;;37.78;26.63;;;13.40;57.70;;;;;;7369802;19;20486;-73
2023/05/09 02:14:47;;;;;;;36.03;26.30;;;13.50;58.10;;;;;;7391371;19;20010;-72
2023/05/09 02:17:18;;;;;;;36.38;26.90;;;13.40;57.70;;;;;;7368930;19;20021;-71
2023/05/09 02:19:47;;;;;;;33.78;25.05;;;13.40;57.60;;;;;;7366363;19;20002;-71
2023/05/09 02:22:18;;;;;;;34.25;26.05;;;13.40;57.40;;;;;;7369034;19;20455;-72
2023/05/09 02:24:48;;;;;;;35.97;26.75;;;13.30;57.20;;;;;;7368545;19;20022;-72
2023/05/09 02:27:18;;;;;;;38.60;26.48;;;13.30;56.80;;;;;;7367019;19;20010;-72
2023/05/09 02:29:56;;;;;;;34.70;26.33;;;13.20;57.00;;;;;;7387270;19;20028;-72
2023/05/09 02:32:30;;;;;;;39.38;28.05;;;13.30;57.00;;;;;;7368827;19;20497;-73
2023/05/09 02:35:02;;;;;;;;;;;13.30;57.20;;;;;;7368353;19;20002;-72
2023/05/09 02:37:33;;;;;;;41.95;29.05;;;13.30;56.60;;;;;;7368105;19;19933;-71
2023/05/09 02:40:04;;;;;;;42.58;30.58;;;13.30;56.50;;;;;;7364986;19;20014;-72
2023/05/09 02:42:34;;;;;;;41.28;31.20;;;13.30;56.40;;;;;;7369502;19;20082;-71
2023/05/09 02:45:09;;;;;;;39.13;28.92;;;13.30;56.50;;;;;;7374914;19;20128;-72
2023/05/09 02:47:39;;;;;;;41.92;29.33;;;13.30;56.30;;;;;;7390294;19;20035;-72
2023/05/09 02:50:10;;;;;;;37.92;27.73;;;13.30;55.90;;;;;;7365303;19;20021;-72
2023/05/09 02:52:40;;;;;;;37.30;27.98;;;13.40;56.40;;;;;;7368195;19;20006;-73
2023/05/09 02:55:11;;;;;;;37.20;27.17;;;13.30;54.70;;;;;;7367580;19;20035;-73
2023/05/09 02:57:41;;;;;;;38.22;28.63;;;13.30;54.00;;;;;;7368898;19;20006;-73
2023/05/09 03:00:16;;;;;;;41.47;27.55;;;13.30;53.30;;;;;;7365306;19;20518;-71
2023/05/09 03:02:47;;;;;;;36.65;27.88;;;13.20;53.10;;;;;;7390525;19;20019;-72
2023/05/09 03:05:17;;;;;;;34.30;26.55;;;13.30;53.70;;;;;;7366530;19;20014;-72
2023/05/09 03:07:48;;;;;;;42.22;28.33;;;13.30;53.20;;;;;;7367363;19;20007;-72
2023/05/09 03:10:18;;;;;;;34.70;25.95;;;13.30;53.80;;;;;;7366731;19;20019;-73
2023/05/09 03:12:48;;;;;;;37.30;26.42;;;13.20;53.10;;;;;;7368677;19;20337;-73
2023/05/09 03:15:21;;;;;;;33.05;25.42;;;13.10;53.40;;;;;;7365584;19;20416;-73
2023/05/09 03:17:51;;;;;;;44.15;25.70;;;13.10;53.50;;;;;;7389286;19;20015;-73
2023/05/09 03:20:21;;;;;;;34.22;24.13;;;13.10;54.00;;;;;;7365260;19;20006;-73
2023/05/09 03:22:51;;;;;;;37.40;26.58;;;13.00;53.70;;;;;;7365921;19;20010;-72
2023/05/09 03:25:21;;;;;;;33.10;24.83;;;13.00;53.60;;;;;;7366666;19;20040;-73
2023/05/09 03:27:51;;;;;;;34.85;24.70;;;12.90;52.90;;;;;;7366225;19;20019;-73
2023/05/09 03:30:25;;;;;;;34.38;25.08;;;13.00;53.40;;;;;;7364753;19;20520;-73
2023/05/09 03:32:55;;;;;;;33.92;25.02;;;13.00;52.60;;;;;;7389197;19;20013;-73
2023/05/09 03:35:25;;;;;;;32.58;24.35;;;13.00;52.10;;;;;;7365855;19;20471;-71
2023/05/09 03:37:55;;;;;;;35.35;25.15;;;13.00;52.10;;;;;;7365724;19;20014;-72
2023/05/09 03:40:25;;;;;;;35.33;24.20;;;13.00;52.10;;;;;;7363477;19;20019;-73
2023/05/09 03:42:54;;;;;;;37.65;25.95;;;13.00;50.70;;;;;;7368037;19;20754;-72
2023/05/09 03:45:27;;;;;;;36.35;26.65;;;12.90;50.80;;;;;;7365877;19;20028;-73
2023/05/09 03:47:57;;;;;;;46.45;30.27;;;12.90;51.30;;;;;;7387149;19;20014;-71
2023/05/09 03:50:27;;;;;;;46.17;33.60;;;12.90;52.10;;;;;;7368323;19;20077;-72
2023/05/09 03:52:57;;;;;;;45.97;34.65;;;12.90;52.00;;;;;;7373324;19;20042;-72
2023/05/09 03:55:27;;;;;;;42.08;31.27;;;13.00;52.00;;;;;;7372751;19;20010;-72
2023/05/09 03:57:57;;;;;;;49.15;35.08;;;13.00;52.00;;;;;;7373585;19;20085;-72
2023/05/09 04:00:30;;;;;;;49.00;34.00;;;13.00;52.00;;;;;;7371265;19;20018;-72
2023/05/09 04:03:00;;;;;;;38.90;29.65;;;13.10;52.10;;;;;;7396068;19;20025;-72
2023/05/09 04:05:32;;;;;;;39.95;28.08;;;13.10;51.20;;;;;;7371968;19;20015;-73
2023/05/09 04:08:02;;;;;;;42.53;26.95;;;13.20;49.70;;;;;;7372378;19;20120;-72
2023/05/09 04:10:32;;;;;;;35.50;26.85;;;13.20;49.70;;;;;;7371696;19;20090;-72
2023/05/09 04:13:02;;;;;;;37.28;26.95;;;13.20;49.60;;;;;;7373644;19;20490;-73
2023/05/09 04:15:35;;;;;;;41.85;29.15;;;13.20;49.20;;;;;;7372001;19;20122;-72
2023/05/09 04:18:05;;;;;;;40.13;26.70;;;13.10;50.20;;;;;;7371137;19;20017;-73
2023/05/09 04:20:35;;;;;;;36.00;25.98;;;13.10;49.50;;;;;;7391231;19;20014;-72
2023/05/09 04:23:05;;;;;;;35.75;25.77;;;13.00;50.20;;;;;;7373538;19;20020;-72
2023/05/09 04:25:36;;;;;;;37.20;26.83;;;13.10;50.60;;;;;;7373374;19;20030;-72
2023/05/09 04:28:07;;;;;;;39.28;25.85;;;13.10;51.10;;;;;;7371495;19;20015;-72
2023/05/09 04:30:39;;;;;;;37.45;24.65;;;13.10;51.50;;;;;;7369795;19;20076;-70
2023/05/09 04:33:10;;;;;;;44.80;26.63;;;13.20;52.00;;;;;;7374995;19;20015;-71
2023/05/09 04:35:40;;;;;;;36.55;26.67;;;13.30;51.70;;;;;;7394853;19;20031;-71
2023/05/09 04:38:10;;;;;;;40.10;27.77;;;13.30;52.20;;;;;;7370811;19;20509;-72
2023/05/09 04:40:40;;;;;;;37.03;26.10;;;13.30;49.70;;;;;;7370217;19;20026;-72
2023/05/09 04:43:10;;;;;;;43.45;28.08;;;13.30;50.70;;;;;;7372162;19;20502;-72
2023/05/09 04:45:42;;;;;;;40.55;27.77;;;13.30;49.70;;;;;;7372621;19;20094;-72
2023/05/09 04:48:12;;;;;;;38.50;26.55;;;13.40;49.50;;;;;;7370260;19;20011;-72
2023/05/09 04:50:43;;;;;;;40.55;26.70;;;13.40;47.80;;;;;;7391515;19;20014;-71
2023/05/09 04:53:12;;;;;;;36.75;25.73;;;13.50;47.70;;;;;;7371992;19;20006;-71
2023/05/09 04:55:43;;;;;;;38.08;25.15;;;13.50;45.80;;;;;;7371017;19;20006;-72
2023/05/09 04:58:12;;;;;;;33.75;25.30;;;13.60;45.50;;;;;;7369592;19;20022;-72
2023/05/09 05:00:45;;;;;;;35.88;25.27;;;13.60;44.90;;;;;;7367626;19;20027;-72
2023/05/09 05:03:16;;;;;;;32.75;24.08;;;13.60;43.40;;;;;;7372328;19;20018;-71
2023/05/09 05:05:46;;;;;;;33.78;23.95;;;13.60;44.40;;;;;;7394237;19;20138;-72
2023/05/09 05:08:16;;;;;;;35.15;23.55;;;13.70;43.90;;;;;;7369161;19;20010;-72
2023/05/09 05:10:47;;;;;;;32.40;24.20;;;13.70;42.40;;;;;;7370244;19;20533;-72
2023/05/09 05:13:17;;;;;;;31.98;24.15;;;13.80;41.50;;;;;;7372028;19;20534;-72
2023/05/09 05:15:50;;;;;;;30.92;22.88;;;13.80;40.50;;;;;;7370110;19;20066;-71
2023/05/09 05:18:20;;;;;;;31.73;23.75;;;13.90;39.80;;;;;;7368815;19;20014;-72
2023/05/09 05:20:50;;;;;;;33.80;22.30;;;14.00;38.20;;;;;;7390346;19;20479;-72
2023/05/09 05:23:20;;;;;;;33.55;23.10;;;14.00;37.90;;;;;;7370298;19;20474;-71
2023/05/09 05:25:50;;;;;;;29.40;21.52;;;14.10;38.20;;;;;;7370490;19;20011;-73
2023/05/09 05:28:20;;;;;;;33.00;22.65;;;14.20;36.80;;;;;;7367939;19;20014;-71
2023/05/09 05:30:53;;;;;;;30.88;21.92;;;14.20;35.30;;;;;;7367954;19;20010;-71
2023/05/09 05:33:23;;;;;;;33.47;23.05;;;14.20;32.90;;;;;;7370547;19;20020;-71
2023/05/09 05:35:52;;;;;;;32.97;21.63;;;14.30;34.90;;;;;;7391864;19;20343;-72
2023/05/09 05:38:22;;;;;;;32.00;22.38;;;14.40;32.50;;;;;;7367685;19;20018;-71
2023/05/09 05:40:52;;;;;;;29.70;22.08;;;14.40;30.20;;;;;;7367020;19;20159;-72
2023/05/09 05:43:22;;;;;;;32.05;22.58;;;14.50;31.10;;;;;;7369695;19;20058;-73
2023/05/09 05:45:56;;;;;;;31.08;21.77;;;14.60;28.00;;;;;;7370862;19;20006;-71
2023/05/09 05:48:26;;;;;;;34.15;22.08;;;14.90;25.10;;;;;;7367921;19;20091;-71
2023/05/09 05:50:56;;;;;;;34.63;22.63;;;15.00;27.50;;;;;;7389717;19;20066;-72
2023/05/09 05:53:26;;;;;;;31.38;22.55;;;14.90;23.20;;;;;;7368655;19;20011;-72
2023/05/09 05:55:55;;;;;;;27.35;20.90;;;14.90;24.40;;;;;;7368876;19;20006;-71
2023/05/09 05:58:26;;;;;;;33.10;21.15;;;14.90;23.60;;;;;;7367743;19;20014;-72
2023/05/09 06:00:59;;;;;;;33.38;21.58;;;14.90;21.40;;;;;;7367106;19;20006;-72
2023/05/09 06:03:29;;;;;;;31.02;21.50;;;15.10;22.00;;;;;;7368495;19;20010;-72
2023/05/09 06:06:00;;;;;;;30.88;22.40;;;15.10;19.80;;;;;;7390911;19;20482;-72
2023/05/09 06:08:29;;;;;;;35.15;23.27;;;15.00;23.40;;;;;;7367153;19;20014;-72
2023/05/09 06:10:59;;;;;;;30.65;22.02;;;15.10;22.30;;;;;;7365826;19;20026;-71
2023/05/09 06:13:29;;;;;;;30.92;22.65;;;15.00;23.90;;;;;;7367385;19;20533;-73
2023/05/09 06:16:02;;;;;;;31.75;20.38;;;15.10;22.00;;;;;;7369640;19;20018;-72
2023/05/09 06:18:47;;;;;;;33.72;23.17;;;15.30;19.80;;;;;;7366380;19;20094;-72
2023/05/09 06:21:17;;;;;;;27.30;20.75;;;15.50;19.00;;;;;;7365784;19;20010;-72
2023/05/09 06:23:47;;;;;;;29.50;22.25;;;15.90;16.50;;;;;;7389919;19;20013;-73
2023/05/09 06:26:37;;;;;;;27.83;20.88;;;16.10;13.70;;;;;;7369476;19;20021;-73
2023/05/09 06:29:07;;;;;;;26.52;20.27;;;17.50;1.00;;;;;;7365522;19;20006;-72
2023/05/09 06:31:40;;;;;;;35.13;21.67;;;18.10;1.00;;;;;;7366358;19;20015;-72
2023/05/09 06:34:10;;;;;;;27.38;20.33;;;17.80;1.00;;;;;;7368614;19;20081;-72
2023/05/09 06:36:40;;;;;;;29.40;20.92;;;17.40;1.00;;;;;;7367439;19;20351;-72
2023/05/09 06:39:10;;;;;;;30.05;20.88;;;17.50;1.00;;;;;;7366730;19;20013;-71
2023/05/09 06:41:39;;;;;;;28.13;20.88;;;17.40;1.00;;;;;;7388203;19;20028;-72
2023/05/09 06:44:09;;;;;;;25.70;19.27;;;17.40;1.00;;;;;;7366929;19;20047;-72
2023/05/09 06:46:42;;;;;;;27.90;20.98;;;17.20;1.00;;;;;;7368419;19;20011;-71
2023/05/09 06:49:12;;;;;;;27.75;21.33;;;17.10;1.40;;;;;;7366012;19;20026;-72
2023/05/09 06:51:42;;;;;;;24.38;20.20;;;17.00;3.10;;;;;;7366842;19;20402;-71
2023/05/09 06:54:12;;;;;;;29.50;20.98;;;17.00;3.60;;;;;;7366988;19;20030;-71
2023/05/09 06:56:42;;;;;;;26.73;20.58;;;17.20;1.50;;;;;;7390437;19;20007;-72
2023/05/09 06:59:15;;;;;;;28.70;20.05;;;17.00;1.00;;;;;;7364757;19;20755;-73
2023/05/09 07:01:47;;;;;;;28.67;21.58;;;17.40;1.30;;;;;;7366028;19;20007;-71
2023/05/09 07:04:17;;;;;;;29.45;21.13;;;17.10;1.00;;;;;;7366329;19;20011;-72
2023/05/09 07:06:47;;;;;;;30.90;21.67;;;17.10;1.00;;;;;;7364481;19;20017;-72
2023/05/09 07:09:19;;;;;;;26.02;20.10;;;17.00;1.30;;;;;;7366094;19;20010;-72
2023/05/09 07:11:49;;;;;;;28.38;21.27;;;17.10;1.90;;;;;;7386526;19;20018;-72
2023/05/09 07:14:19;;;;;;;30.35;20.15;;;17.40;1.00;;;;;;7366870;19;20010;-72
2023/05/09 07:16:51;;;;;;;26.45;19.95;;;17.70;1.00;;;;;;7366035;19;20498;-73
2023/05/09 07:19:23;;;;;;;29.55;21.27;;;17.90;1.00;;;;;;7364526;19;20038;-72
2023/05/09 07:21:53;;;;;;;28.00;21.42;;;18.20;1.00;;;;;;7365703;19;20014;-72
2023/05/09 07:24:23;;;;;;;29.15;21.67;;;18.40;1.00;;;;;;7364188;19;22239;-72
2023/05/09 07:26:53;;;;;;;25.35;19.05;;;18.00;1.00;;;;;;7388090;19;20348;-72
2023/05/09 07:29:23;;;;;;;26.17;20.02;;;18.20;1.00;;;;;;7363197;19;21696;-73
2023/05/09 07:31:56;;;;;;;28.45;19.90;;;18.10;1.00;;;;;;7363506;19;20022;-72
2023/05/09 07:34:26;;;;;;;25.52;19.92;;;18.40;1.00;;;;;;7366775;19;20011;-71
2023/05/09 07:36:57;;;;;;;25.00;18.67;;;18.70;1.00;;;;;;7366286;19;20042;-71
2023/05/09 07:39:27;;;;;;;28.85;21.13;;;19.00;1.00;;;;;;7364517;19;20064;-72
2023/05/09 07:41:57;;;;;;;25.98;20.10;;;19.40;1.00;;;;;;7386807;19;20482;-73
2023/05/09 07:44:27;;;;;;;24.88;17.92;;;19.30;1.00;;;;;;7364815;19;20011;-74
2023/05/09 07:47:01;;;;;;;21.08;17.10;;;19.40;1.00;;;;;;7366380;19;20074;-72
2023/05/09 07:49:31;;;;;;;22.52;17.48;;;19.20;1.00;;;;;;7364828;19;20030;-73
2023/05/09 07:52:01;;;;;;;20.98;16.13;;;19.30;1.00;;;;;;7365822;19;20018;-72
2023/05/09 07:54:31;;;;;;;23.35;16.08;;;19.00;1.00;;;;;;7363868;19;20017;-72
2023/05/09 07:57:00;;;;;;;20.00;16.73;;;19.40;1.00;;;;;;7387919;19;20485;-73
2023/05/09 07:59:30;;;;;;;22.90;16.88;;;19.20;1.00;;;;;;7363949;19;20030;-72
2023/05/09 08:02:03;;;;;;;21.85;17.02;;;19.30;1.00;;;;;;7364478;19;20372;-73
2023/05/09 08:04:33;;;;;;;21.23;16.55;;;19.20;1.00;;;;;;7364259;19;20019;-73
2023/05/09 08:07:03;;;;;;;22.80;16.38;;;19.60;1.00;;;;;;7365228;19;20022;-72
2023/05/09 08:09:33;;;;;;;19.42;15.90;;;19.40;1.00;;;;;;7364825;19;20010;-73
2023/05/09 08:12:03;;;;;;;17.75;14.38;;;19.30;1.00;;;;;;7385351;19;20010;-71
2023/05/09 08:14:33;;;;;;;21.92;16.00;;;19.60;1.00;;;;;;7386301;19;20011;-73
2023/05/09 08:17:05;;;;;;;19.10;15.48;;;19.80;1.00;;;;;;7364708;19;20022;-72
2023/05/09 08:19:35;;;;;;;19.40;14.95;;;19.70;1.00;;;;;;7362800;19;20434;-73
2023/05/09 08:22:05;;;;;;;20.58;14.82;;;19.70;1.00;;;;;;7364979;19;20587;-72
2023/05/09 08:24:35;;;;;;;18.02;13.35;;;19.60;1.00;;;;;;7363089;19;20013;-73
2023/05/09 08:27:05;;;;;;;15.95;14.13;;;19.80;1.00;;;;;;7365269;19;20475;-70
2023/05/09 08:29:35;;;;;;;17.88;14.18;;;19.30;1.00;;;;;;7385350;19;20019;-71
2023/05/09 08:32:08;;;;;;;17.60;13.48;;;19.20;1.00;;;;;;7363455;19;21262;-72
2023/05/09 08:34:37;;;;;;;20.52;15.15;;;19.50;1.00;;;;;;7364298;19;20015;-73
2023/05/09 08:37:07;;;;;;;21.30;14.73;;;19.90;1.00;;;;;;7368534;19;20082;-72
2023/05/09 08:39:37;;;;;;;19.92;14.00;;;20.00;1.00;;;;;;7371562;19;20616;-72
2023/05/09 08:42:10;;;;;;;17.70;14.25;;;20.30;1.00;;;;;;7372397;19;20025;-73
2023/05/09 08:44:39;;;;;;;19.08;15.18;;;20.30;1.00;;;;;;7390590;19;20014;-72
2023/05/09 08:47:13;;;;;;;18.95;15.80;;;20.20;1.00;;;;;;7371269;19;20351;-72
2023/05/09 08:49:43;;;;;;;22.40;16.33;;;20.40;1.00;;;;;;7369880;19;20010;-72
2023/05/09 08:52:14;;;;;;;18.05;15.60;;;20.00;1.00;;;;;;7371527;19;20003;-73
2023/05/09 08:54:45;;;;;;;21.10;17.27;;;20.10;1.00;;;;;;7370192;19;20007;-73
2023/05/09 08:57:15;;;;;;;21.17;16.90;;;20.20;1.00;;;;;;7370892;19;20074;-73
2023/05/09 08:59:45;;;;;;;20.83;17.10;;;19.50;1.00;;;;;;7391491;19;20089;-71
2023/05/09 09:02:18;;;;;;;20.45;16.35;;;19.50;1.00;;;;;;7370370;19;20443;-71
2023/05/09 09:04:48;;;;;;;22.67;17.52;;;19.90;1.00;;;;;;7369266;19;20006;-72
2023/05/09 09:07:18;;;;;;;22.08;16.60;;;20.10;1.00;;;;;;7370867;19;20359;-71
2023/05/09 09:09:50;;;;;;;17.50;14.43;;;20.30;1.00;;;;;;7370097;19;20041;-73
2023/05/09 09:12:23;;;;;;;19.85;15.50;;;20.50;1.00;;;;;;7370762;19;20014;-73
2023/05/09 09:14:56;;;;;;;18.00;13.50;;;20.80;1.00;;;;;;7394262;19;20011;-73
2023/05/09 09:17:31;;;;;;;19.02;14.93;;;21.50;1.00;;;;;;7369603;19;20011;-73
2023/05/09 09:20:04;;;;;;;17.80;13.88;;;20.70;1.00;;;;;;7366916;19;20024;-73
2023/05/09 09:22:36;;;;;;;17.67;14.57;;;20.60;1.00;;;;;;7370770;19;20482;-73
2023/05/09 09:25:07;;;;;;;20.67;13.60;;;20.80;1.00;;;;;;7368808;19;20017;-73
2023/05/09 09:27:37;;;;;;;17.40;14.60;;;21.30;1.00;;;;;;7369558;19;20074;-72
2023/05/09 09:30:11;;;;;;;19.05;13.88;;;20.90;1.00;;;;;;7367451;19;20011;-72
2023/05/09 09:32:43;;;;;;;;;;;21.00;1.00;;;;;;7392655;19;20604;-73
2023/05/09 09:35:13;;;;;;;17.45;13.25;;;20.90;1.00;;;;;;7369490;19;20265;-72
2023/05/09 09:37:44;;;;;;;19.45;16.00;;;20.90;1.00;;;;;;7368214;19;20073;-72
2023/05/09 09:40:16;;;;;;;19.15;14.35;;;21.20;1.00;;;;;;7369023;19;20027;-73
2023/05/09 09:42:48;;;;;;;18.00;13.60;;;21.50;1.00;;;;;;7371154;19;20006;-73
2023/05/09 09:45:19;;;;;;;17.33;13.82;;;21.90;1.00;;;;;;7367177;19;20014;-73
2023/05/09 09:47:53;;;;;;;15.25;13.13;;;21.90;1.00;;;;;;7389931;19;20025;-73
2023/05/09 09:50:24;;;;;;;17.98;13.32;;;21.90;1.00;;;;;;7366980;19;20006;-72
2023/05/09 09:52:55;;;;;;;16.45;13.60;;;21.90;1.00;;;;;;7369978;19;20010;-72
2023/05/09 09:55:26;;;;;;;17.35;12.68;;;22.20;1.00;;;;;;7367977;19;20013;-73
2023/05/09 09:57:56;;;;;;;13.65;12.05;;;21.70;1.00;;;;;;7368221;19;20014;-73
2023/05/09 10:00:29;;;;;;;18.95;13.00;;;21.70;1.00;;;;;;7367855;19;20021;-73
2023/05/09 10:03:01;;;;;;;15.30;12.88;;;21.40;1.00;;;;;;7392034;19;20097;-73
2023/05/09 10:05:33;;;;;;;18.95;13.10;;;21.70;1.00;;;;;;7366956;19;20012;-73
2023/05/09 10:08:06;;;;;;;13.65;11.80;;;21.70;1.00;;;;;;7366440;19;20044;-73
2023/05/09 10:10:37;;;;;;;17.47;13.27;;;21.90;1.00;;;;;;7368815;19;20377;-74
2023/05/09 10:13:11;;;;;;;15.73;11.73;;;22.10;1.00;;;;;;7367870;19;20018;-74
2023/05/09 10:15:42;;;;;;;12.27;10.88;;;22.20;1.00;;;;;;7368455;19;20011;-71
2023/05/09 10:18:29;;;;;;;13.13;10.82;;;21.90;1.00;;;;;;7366563;19;20006;-74
2023/05/09 10:21:03;;;;;;;11.32;9.85;;;21.60;1.00;;;;;;7389216;19;20042;-72
2023/05/09 10:23:38;;;;;;;12.73;9.80;;;21.80;1.00;;;;;;7368114;19;20070;-72
2023/05/09 10:26:18;;;;;;;13.93;9.73;;;21.20;1.00;;;;;;7369425;19;20006;-73
2023/05/09 10:28:50;;;;;;;11.48;9.52;;;21.70;1.00;;;;;;7365747;19;20014;-71
2023/05/09 10:31:26;;;;;;;11.18;9.23;;;21.80;1.00;;;;;;7368519;19;20018;-73
2023/05/09 10:34:06;;;;;;;10.65;8.40;;;21.60;1.00;;;;;;7366831;19;20030;-73
2023/05/09 10:36:37;;;;;;;10.57;8.57;;;21.90;1.00;;;;;;7368532;19;20474;-73
2023/05/09 10:39:07;;;;;;;12.15;9.52;;;22.00;1.00;;;;;;7365720;19;20025;-73
2023/05/09 10:41:38;;;;;;;12.45;9.63;;;21.20;1.00;;;;;;7389542;19;20645;-73
2023/05/09 10:44:08;;;;;;;8.70;7.80;;;21.20;1.00;;;;;;7366045;19;20014;-72
2023/05/09 10:46:39;;;;;;;11.98;7.75;;;22.00;1.00;;;;;;7368374;19;20014;-72
2023/05/09 10:49:12;;;;;;;11.23;8.75;;;22.70;1.00;;;;;;7365129;19;20006;-72
2023/05/09 10:51:42;;;;;;;8.98;7.35;;;22.90;1.00;;;;;;7367261;19;20014;-72
2023/05/09 10:54:17;;;;;;;9.32;8.30;;;22.70;1.00;;;;;;7365973;19;20014;-73
2023/05/09 10:56:46;;;;;;;8.43;7.35;;;22.50;1.00;;;;;;7389651;19;20338;-73
2023/05/09 10:59:36;;;;;;;10.32;7.80;;;22.50;1.00;;;;;;7366004;19;20015;-73
2023/05/09 11:02:06;;;;;;;10.02;8.20;;;22.20;1.00;;;;;;7359061;19;20074;-71
2023/05/09 11:04:41;;;;;;;9.50;8.05;;;21.90;1.00;;;;;;7367854;19;20029;-72
2023/05/09 11:07:25;;;;;;;10.65;8.63;;;22.50;1.00;;;;;;7368610;19;20538;-73
2023/05/09 11:10:08;;;;;;;10.65;8.20;;;22.50;1.00;;;;;;7360825;19;20836;-72
2023/05/09 11:12:57;;;;;;;8.90;7.97;;;23.10;1.00;;;;;;7366646;19;20018;-73
2023/05/09 11:15:28;;;;;;;8.90;8.00;;;23.30;1.00;;;;;;7368627;19;20023;-72
2023/05/09 11:18:09;;;;;;;11.13;10.02;;;23.00;1.00;;;;;;7388332;19;20064;-73
2023/05/09 11:20:50;;;;;;;12.82;9.75;;;22.90;1.00;;;;;;7365337;19;20021;-72
2023/05/09 11:23:21;;;;;;;12.63;9.40;;;22.90;1.00;;;;;;7366369;19;20070;-72
2023/05/09 11:25:51;;;;;;;10.68;9.35;;;22.10;1.00;;;;;;7365263;19;20436;-71
2023/05/09 11:28:29;;;;;;;10.25;8.48;;;22.30;1.00;;;;;;7364539;19;20553;-73
2023/05/09 11:31:11;;;;;;;9.85;7.78;;;22.90;1.00;;;;;;7363349;19;20038;-72
2023/05/09 11:33:42;;;;;;;11.50;9.35;;;23.30;1.00;;;;;;7365696;19;20014;-75
2023/05/09 11:36:32;;;;;;;11.30;9.68;;;23.10;1.00;;;;;;7366386;19;20086;-73
2023/05/09 11:39:05;;;;;;;13.80;10.82;;;22.80;1.00;;;;;;7386564;19;20011;-73
2023/05/09 11:41:42;;;;;;;11.95;9.38;;;22.70;1.00;;;;;;7364926;19;20007;-72
2023/05/09 11:44:18;;;;;;;10.02;8.50;;;22.60;1.00;;;;;;7365191;19;20018;-72
2023/05/09 11:46:49;;;;;;;11.10;8.27;;;22.70;1.00;;;;;;7365146;19;20432;-71
2023/05/09 11:49:19;;;;;;;10.75;9.18;;;22.70;1.00;;;;;;7364387;19;20003;-73
2023/05/09 11:51:52;;;;;;;12.95;9.57;;;22.80;1.00;;;;;;7362561;19;20011;-72
2023/05/09 11:54:25;;;;;;;10.98;8.20;;;22.40;1.00;;;;;;7364345;19;20022;-72
2023/05/09 11:56:55;;;;;;;8.10;7.18;;;22.80;1.00;;;;;;7386907;19;20351;-71
2023/05/09 11:59:25;;;;;;;8.35;7.53;;;22.90;1.00;;;;;;7363698;19;20481;-71
2023/05/09 12:01:55;;;;;;;9.27;8.23;;;22.90;1.00;;;;;;7363609;19;20062;-71
2023/05/09 12:04:26;;;;;;;11.88;7.75;;;23.40;1.00;;;;;;7364172;19;20052;-70
2023/05/09 12:06:59;;;;;;;10.48;8.30;;;23.10;1.00;;;;;;7362357;19;20015;-73
2023/05/09 12:09:33;;;;;;;9.93;7.43;;;23.20;1.00;;;;;;7364857;19;20015;-71
2023/05/09 12:12:03;;;;;;;11.15;7.45;;;23.40;1.00;;;;;;7390727;19;20074;-75
2023/05/09 12:14:36;;;;;;;9.73;7.53;;;22.90;1.00;;;;;;7393257;19;20551;-72
2023/05/09 12:17:05;;;;;;;8.20;7.25;;;22.70;1.00;;;;;;7370810;19;20010;-73
2023/05/09 12:19:35;;;;;;;12.43;7.40;;;22.80;1.00;;;;;;7370992;19;20023;-71
2023/05/09 12:22:08;;;;;;;8.18;6.68;;;22.90;1.00;;;;;;7369859;19;20034;-71
2023/05/09 12:24:38;;;;;;;8.00;6.85;;;23.30;1.00;;;;;;7371930;19;20068;-72
2023/05/09 12:27:09;;;;;;;8.65;6.72;;;23.50;1.00;;;;;;7368887;19;20021;-73
2023/05/09 12:29:41;;;;;;;7.60;6.80;;;23.70;1.00;;;;;;7391619;19;20018;-73
2023/05/09 12:32:11;;;;;;;7.15;6.28;;;23.50;1.00;;;;;;7370947;19;20432;-72
2023/05/09 12:34:42;;;;;;;6.78;6.07;;;23.40;1.00;;;;;;7371667;19;20025;-72
2023/05/09 12:37:19;;;;;;;7.25;5.70;;;23.00;1.00;;;;;;7370710;19;20024;-72
2023/05/09 12:40:03;;;;;;;8.57;6.18;;;23.40;1.00;;;;;;7370304;19;20010;-72
2023/05/09 12:42:33;;;;;;;7.40;6.33;;;23.30;1.00;;;;;;7370750;19;20007;-72
2023/05/09 12:45:04;;;;;;;6.90;6.18;;;22.90;1.00;;;;;;7387322;19;20300;-72
2023/05/09 12:47:37;;;;;;;8.25;5.50;;;23.00;1.00;;;;;;7391965;19;20027;-73
2023/05/09 12:50:09;;;;;;;6.93;5.18;;;23.10;1.00;;;;;;7368501;19;20090;-73
2023/05/09 12:52:45;;;;;;;6.82;6.15;;;23.20;1.00;;;;;;7368718;19;20017;-71
2023/05/09 12:55:31;;;;;;;7.93;6.50;;;23.20;1.00;;;;;;7371324;19;20014;-72
2023/05/09 12:58:03;;;;;;;7.85;7.05;;;22.80;1.00;;;;;;7369423;19;20042;-72
2023/05/09 13:00:45;;;;;;;8.18;6.50;;;22.80;1.00;;;;;;7365093;19;20108;-72